Accueil
METAR-TAF:

METAR-TAF

Aéroports :

Aéroport de Mesa-Falcon Field

Mesa, Arizona, États-Unis

latitude: 33-28N, longitude: 111-44W, altitude: 424 m

Observation

Le bulletin a été fait il y a 38 minutes, à 08:54 UTC
Vent 4 kt de sud
Température 34°C
Humidité 19%
Pression 1010 hPa
Visibilité: 16.1 km
Ciel clair

METAR: KFFZ 300854Z 19004KT 10SM CLR 34/07 A2983 RMK AO2 SLP070 T03390067 57002

Heure: 02:32 (09:32 UTC)


TAF: absent

Observations et prévisions météorologiques de plus de 4000 aéroports (messages METAR et TAF).

Les stations disponibles sont représentées par des disques jaunes et rouges sur la carte.

Passer la souris dessus pour voir le nom de la station.

Cliquer dessus pour voir les observations et prévisions météorologiques.

Pour changer de carte: cliquez sur les boutons verts avec une croix noire pour zoomer, sur le bouton vert avec un tiret pour effectuer un zoom arrière, ou sur les flèches vertes pour les cartes adjacentes.


METAR-TAF: